sensor_id;sensor_type;location;lat;lon;timestamp;P1;durP1;ratioP1;P2;durP2;ratioP2
55575;SDS011;41437;45.478;9.116;2023-10-19T00:00:38;63.47;;;43.40;;
55575;SDS011;41437;45.478;9.116;2023-10-19T00:03:44;58.83;;;40.70;;
55575;SDS011;41437;45.478;9.116;2023-10-19T00:06:44;60.92;;;41.58;;
55575;SDS011;41437;45.478;9.116;2023-10-19T00:12:53;62.95;;;42.70;;
55575;SDS011;41437;45.478;9.116;2023-10-19T00:16:00;62.22;;;41.22;;
55575;SDS011;41437;45.478;9.116;2023-10-19T00:19:01;58.83;;;41.97;;
55575;SDS011;41437;45.478;9.116;2023-10-19T00:22:04;62.08;;;43.25;;
55575;SDS011;41437;45.478;9.116;2023-10-19T00:25:10;60.53;;;41.65;;
55575;SDS011;41437;45.478;9.116;2023-10-19T00:28:13;67.20;;;44.10;;
55575;SDS011;41437;45.478;9.116;2023-10-19T00:34:20;53.45;;;39.05;;
55575;SDS011;41437;45.478;9.116;2023-10-19T00:37:22;61.85;;;42.55;;
55575;SDS011;41437;45.478;9.116;2023-10-19T00:40:30;62.97;;;42.28;;
55575;SDS011;41437;45.478;9.116;2023-10-19T00:43:37;60.88;;;43.17;;
55575;SDS011;41437;45.478;9.116;2023-10-19T00:46:43;71.32;;;45.60;;
55575;SDS011;41437;45.478;9.116;2023-10-19T00:49:50;60.17;;;42.13;;
55575;SDS011;41437;45.478;9.116;2023-10-19T00:55:59;61.50;;;42.83;;
55575;SDS011;41437;45.478;9.116;2023-10-19T00:59:02;67.18;;;46.20;;
55575;SDS011;41437;45.478;9.116;2023-10-19T01:02:12;66.28;;;44.88;;
55575;SDS011;41437;45.478;9.116;2023-10-19T01:05:21;61.63;;;44.50;;
55575;SDS011;41437;45.478;9.116;2023-10-19T01:08:23;62.83;;;43.90;;
55575;SDS011;41437;45.478;9.116;2023-10-19T01:11:32;65.47;;;45.67;;
55575;SDS011;41437;45.478;9.116;2023-10-19T01:14:35;61.63;;;43.60;;
55575;SDS011;41437;45.478;9.116;2023-10-19T01:17:37;63.63;;;44.30;;
55575;SDS011;41437;45.478;9.116;2023-10-19T01:20:43;67.32;;;46.42;;
55575;SDS011;41437;45.478;9.116;2023-10-19T01:23:52;64.57;;;44.55;;
55575;SDS011;41437;45.478;9.116;2023-10-19T01:26:54;67.60;;;46.17;;
55575;SDS011;41437;45.478;9.116;2023-10-19T01:29:57;69.13;;;45.83;;
55575;SDS011;41437;45.478;9.116;2023-10-19T01:33:01;64.22;;;45.65;;
55575;SDS011;41437;45.478;9.116;2023-10-19T01:36:04;68.80;;;46.28;;
55575;SDS011;41437;45.478;9.116;2023-10-19T01:39:13;75.03;;;46.80;;
55575;SDS011;41437;45.478;9.116;2023-10-19T01:42:15;74.10;;;47.80;;
55575;SDS011;41437;45.478;9.116;2023-10-19T01:45:17;71.85;;;47.53;;
55575;SDS011;41437;45.478;9.116;2023-10-19T01:48:19;65.95;;;45.33;;
55575;SDS011;41437;45.478;9.116;2023-10-19T01:51:23;66.35;;;45.10;;
55575;SDS011;41437;45.478;9.116;2023-10-19T01:54:28;62.88;;;45.97;;
55575;SDS011;41437;45.478;9.116;2023-10-19T01:57:28;68.65;;;47.22;;
55575;SDS011;41437;45.478;9.116;2023-10-19T02:00:30;65.32;;;45.83;;
55575;SDS011;41437;45.478;9.116;2023-10-19T02:03:32;60.33;;;41.45;;
55575;SDS011;41437;45.478;9.116;2023-10-19T02:06:35;67.95;;;46.13;;
55575;SDS011;41437;45.478;9.116;2023-10-19T02:09:38;67.20;;;45.75;;
55575;SDS011;41437;45.478;9.116;2023-10-19T02:12:40;64.22;;;46.00;;
55575;SDS011;41437;45.478;9.116;2023-10-19T02:15:46;68.75;;;47.30;;
55575;SDS011;41437;45.478;9.116;2023-10-19T02:18:49;62.85;;;44.13;;
55575;SDS011;41437;45.478;9.116;2023-10-19T02:21:51;62.78;;;43.47;;
55575;SDS011;41437;45.478;9.116;2023-10-19T02:24:55;64.10;;;44.67;;
55575;SDS011;41437;45.478;9.116;2023-10-19T02:27:55;61.17;;;43.60;;
55575;SDS011;41437;45.478;9.116;2023-10-19T02:30:58;67.90;;;47.63;;
55575;SDS011;41437;45.478;9.116;2023-10-19T02:34:11;66.75;;;45.92;;
55575;SDS011;41437;45.478;9.116;2023-10-19T02:37:15;71.32;;;48.00;;
55575;SDS011;41437;45.478;9.116;2023-10-19T02:40:18;70.55;;;47.35;;
55575;SDS011;41437;45.478;9.116;2023-10-19T02:43:21;65.85;;;46.83;;
55575;SDS011;41437;45.478;9.116;2023-10-19T02:46:24;66.10;;;48.00;;
55575;SDS011;41437;45.478;9.116;2023-10-19T02:49:27;64.55;;;46.45;;
55575;SDS011;41437;45.478;9.116;2023-10-19T02:55:32;64.30;;;45.58;;
55575;SDS011;41437;45.478;9.116;2023-10-19T02:58:34;65.63;;;45.63;;
55575;SDS011;41437;45.478;9.116;2023-10-19T03:01:34;60.13;;;42.38;;
55575;SDS011;41437;45.478;9.116;2023-10-19T03:04:36;65.82;;;46.17;;
55575;SDS011;41437;45.478;9.116;2023-10-19T03:07:38;63.80;;;44.65;;
55575;SDS011;41437;45.478;9.116;2023-10-19T03:10:40;62.42;;;44.38;;
55575;SDS011;41437;45.478;9.116;2023-10-19T03:16:44;60.88;;;43.75;;
55575;SDS011;41437;45.478;9.116;2023-10-19T03:19:47;70.83;;;46.20;;
55575;SDS011;41437;45.478;9.116;2023-10-19T03:22:49;68.47;;;47.95;;
55575;SDS011;41437;45.478;9.116;2023-10-19T03:25:56;67.93;;;46.60;;
55575;SDS011;41437;45.478;9.116;2023-10-19T03:29:15;64.18;;;42.85;;
55575;SDS011;41437;45.478;9.116;2023-10-19T03:32:18;66.43;;;44.78;;
55575;SDS011;41437;45.478;9.116;2023-10-19T03:35:22;71.35;;;46.80;;
55575;SDS011;41437;45.478;9.116;2023-10-19T03:38:24;66.75;;;46.58;;
55575;SDS011;41437;45.478;9.116;2023-10-19T03:41:28;69.60;;;45.65;;
55575;SDS011;41437;45.478;9.116;2023-10-19T03:44:31;68.43;;;45.92;;
55575;SDS011;41437;45.478;9.116;2023-10-19T03:47:43;67.38;;;45.90;;
55575;SDS011;41437;45.478;9.116;2023-10-19T03:50:49;63.83;;;44.13;;
55575;SDS011;41437;45.478;9.116;2023-10-19T03:53:51;65.47;;;45.33;;
55575;SDS011;41437;45.478;9.116;2023-10-19T03:56:56;68.30;;;44.13;;
55575;SDS011;41437;45.478;9.116;2023-10-19T04:00:01;63.90;;;43.42;;
55575;SDS011;41437;45.478;9.116;2023-10-19T04:03:11;71.47;;;47.30;;
55575;SDS011;41437;45.478;9.116;2023-10-19T04:06:13;66.68;;;44.08;;
55575;SDS011;41437;45.478;9.116;2023-10-19T04:09:15;66.53;;;44.22;;
55575;SDS011;41437;45.478;9.116;2023-10-19T04:12:20;65.60;;;43.90;;
55575;SDS011;41437;45.478;9.116;2023-10-19T04:15:22;58.67;;;40.25;;
55575;SDS011;41437;45.478;9.116;2023-10-19T04:18:26;63.08;;;42.17;;
55575;SDS011;41437;45.478;9.116;2023-10-19T04:21:28;63.75;;;43.63;;
55575;SDS011;41437;45.478;9.116;2023-10-19T04:24:30;61.50;;;41.17;;
55575;SDS011;41437;45.478;9.116;2023-10-19T04:27:35;65.07;;;43.90;;
55575;SDS011;41437;45.478;9.116;2023-10-19T04:30:36;62.95;;;43.72;;
55575;SDS011;41437;45.478;9.116;2023-10-19T04:33:38;66.70;;;44.35;;
55575;SDS011;41437;45.478;9.116;2023-10-19T04:36:42;61.97;;;42.63;;
55575;SDS011;41437;45.478;9.116;2023-10-19T04:39:44;65.45;;;44.20;;
55575;SDS011;41437;45.478;9.116;2023-10-19T04:42:47;63.38;;;42.83;;
55575;SDS011;41437;45.478;9.116;2023-10-19T04:45:50;61.03;;;41.10;;
55575;SDS011;41437;45.478;9.116;2023-10-19T04:48:52;62.20;;;42.70;;
55575;SDS011;41437;45.478;9.116;2023-10-19T04:51:54;59.78;;;40.90;;
55575;SDS011;41437;45.478;9.116;2023-10-19T04:54:56;57.10;;;38.95;;
55575;SDS011;41437;45.478;9.116;2023-10-19T04:57:59;59.75;;;38.28;;
55575;SDS011;41437;45.478;9.116;2023-10-19T05:01:01;59.70;;;40.22;;
55575;SDS011;41437;45.478;9.116;2023-10-19T05:04:04;56.90;;;38.33;;
55575;SDS011;41437;45.478;9.116;2023-10-19T05:07:05;55.30;;;35.20;;
55575;SDS011;41437;45.478;9.116;2023-10-19T05:10:12;61.78;;;40.47;;
55575;SDS011;41437;45.478;9.116;2023-10-19T05:13:15;59.90;;;39.50;;
55575;SDS011;41437;45.478;9.116;2023-10-19T05:16:17;62.63;;;39.42;;
55575;SDS011;41437;45.478;9.116;2023-10-19T05:19:18;59.38;;;38.70;;
55575;SDS011;41437;45.478;9.116;2023-10-19T05:22:21;60.15;;;40.35;;
55575;SDS011;41437;45.478;9.116;2023-10-19T05:25:32;64.40;;;41.20;;
55575;SDS011;41437;45.478;9.116;2023-10-19T05:28:35;64.38;;;42.13;;
55575;SDS011;41437;45.478;9.116;2023-10-19T05:31:37;63.90;;;42.13;;
55575;SDS011;41437;45.478;9.116;2023-10-19T07:12:21;46.00;;;29.55;;
55575;SDS011;41437;45.478;9.116;2023-10-19T07:15:25;48.35;;;30.40;;
55575;SDS011;41437;45.478;9.116;2023-10-19T07:18:34;43.65;;;28.80;;
55575;SDS011;41437;45.478;9.116;2023-10-19T07:22:14;46.00;;;29.23;;
55575;SDS011;41437;45.478;9.116;2023-10-19T07:25:33;46.25;;;29.25;;
55575;SDS011;41437;45.478;9.116;2023-10-19T07:28:48;44.33;;;28.77;;
55575;SDS011;41437;45.478;9.116;2023-10-19T07:31:53;44.70;;;27.52;;
55575;SDS011;41437;45.478;9.116;2023-10-19T07:34:59;42.08;;;27.75;;
55575;SDS011;41437;45.478;9.116;2023-10-19T07:38:02;46.72;;;28.95;;
55575;SDS011;41437;45.478;9.116;2023-10-19T07:41:04;43.13;;;28.92;;
55575;SDS011;41437;45.478;9.116;2023-10-19T07:44:09;44.13;;;28.30;;
55575;SDS011;41437;45.478;9.116;2023-10-19T07:47:12;44.92;;;27.92;;
55575;SDS011;41437;45.478;9.116;2023-10-19T07:50:14;41.55;;;27.55;;
55575;SDS011;41437;45.478;9.116;2023-10-19T07:53:17;43.50;;;28.52;;
55575;SDS011;41437;45.478;9.116;2023-10-19T07:56:19;39.13;;;26.70;;
55575;SDS011;41437;45.478;9.116;2023-10-19T07:59:25;43.30;;;28.08;;
55575;SDS011;41437;45.478;9.116;2023-10-19T08:02:29;44.20;;;28.65;;
55575;SDS011;41437;45.478;9.116;2023-10-19T08:05:34;46.15;;;28.63;;
55575;SDS011;41437;45.478;9.116;2023-10-19T08:08:38;46.10;;;27.90;;
55575;SDS011;41437;45.478;9.116;2023-10-19T08:11:42;43.45;;;26.92;;
55575;SDS011;41437;45.478;9.116;2023-10-19T08:14:47;40.28;;;26.00;;
55575;SDS011;41437;45.478;9.116;2023-10-19T08:17:52;39.60;;;26.17;;
55575;SDS011;41437;45.478;9.116;2023-10-19T08:20:55;38.43;;;25.60;;
55575;SDS011;41437;45.478;9.116;2023-10-19T08:24:02;42.25;;;27.40;;
55575;SDS011;41437;45.478;9.116;2023-10-19T08:27:13;38.33;;;23.45;;
55575;SDS011;41437;45.478;9.116;2023-10-19T08:33:21;39.58;;;25.00;;
55575;SDS011;41437;45.478;9.116;2023-10-19T08:36:24;39.03;;;25.30;;
55575;SDS011;41437;45.478;9.116;2023-10-19T08:39:27;36.95;;;23.50;;
55575;SDS011;41437;45.478;9.116;2023-10-19T08:42:37;33.83;;;22.35;;
55575;SDS011;41437;45.478;9.116;2023-10-19T08:45:43;33.53;;;22.73;;
55575;SDS011;41437;45.478;9.116;2023-10-19T08:48:45;29.30;;;20.35;;
55575;SDS011;41437;45.478;9.116;2023-10-19T08:51:49;31.65;;;21.80;;
55575;SDS011;41437;45.478;9.116;2023-10-19T08:54:52;31.30;;;21.02;;
55575;SDS011;41437;45.478;9.116;2023-10-19T08:57:55;33.28;;;21.70;;
55575;SDS011;41437;45.478;9.116;2023-10-19T09:01:00;33.58;;;21.65;;
55575;SDS011;41437;45.478;9.116;2023-10-19T09:04:12;32.67;;;21.17;;
55575;SDS011;41437;45.478;9.116;2023-10-19T09:07:27;31.35;;;21.00;;
55575;SDS011;41437;45.478;9.116;2023-10-19T09:11:06;32.38;;;22.17;;
55575;SDS011;41437;45.478;9.116;2023-10-19T09:14:14;32.15;;;21.98;;
55575;SDS011;41437;45.478;9.116;2023-10-19T09:17:21;34.33;;;21.75;;
55575;SDS011;41437;45.478;9.116;2023-10-19T09:20:38;29.88;;;20.38;;
55575;SDS011;41437;45.478;9.116;2023-10-19T09:23:42;29.23;;;20.17;;
55575;SDS011;41437;45.478;9.116;2023-10-19T09:26:45;28.90;;;19.88;;
55575;SDS011;41437;45.478;9.116;2023-10-19T09:29:47;25.63;;;18.23;;
55575;SDS011;41437;45.478;9.116;2023-10-19T09:32:53;28.55;;;18.73;;
55575;SDS011;41437;45.478;9.116;2023-10-19T09:35:56;23.80;;;16.98;;
55575;SDS011;41437;45.478;9.116;2023-10-19T09:39:01;23.13;;;16.65;;
55575;SDS011;41437;45.478;9.116;2023-10-19T09:42:05;23.38;;;15.95;;
55575;SDS011;41437;45.478;9.116;2023-10-19T09:45:10;26.75;;;17.33;;
55575;SDS011;41437;45.478;9.116;2023-10-19T09:48:15;26.73;;;17.08;;
55575;SDS011;41437;45.478;9.116;2023-10-19T09:51:19;22.75;;;16.33;;
55575;SDS011;41437;45.478;9.116;2023-10-19T09:54:27;23.88;;;16.00;;
55575;SDS011;41437;45.478;9.116;2023-10-19T09:57:42;21.63;;;14.68;;
55575;SDS011;41437;45.478;9.116;2023-10-19T10:00:50;21.02;;;14.70;;
55575;SDS011;41437;45.478;9.116;2023-10-19T10:03:53;21.02;;;13.95;;
55575;SDS011;41437;45.478;9.116;2023-10-19T10:06:57;19.40;;;13.82;;
55575;SDS011;41437;45.478;9.116;2023-10-19T10:10:00;19.70;;;14.47;;
55575;SDS011;41437;45.478;9.116;2023-10-19T10:16:39;19.98;;;13.23;;
55575;SDS011;41437;45.478;9.116;2023-10-19T10:19:43;18.27;;;13.30;;
55575;SDS011;41437;45.478;9.116;2023-10-19T10:22:45;18.67;;;12.50;;
55575;SDS011;41437;45.478;9.116;2023-10-19T10:26:17;17.85;;;12.57;;
55575;SDS011;41437;45.478;9.116;2023-10-19T10:29:21;18.45;;;13.23;;
55575;SDS011;41437;45.478;9.116;2023-10-19T10:35:54;18.77;;;12.52;;
55575;SDS011;41437;45.478;9.116;2023-10-19T10:39:02;16.40;;;11.70;;
55575;SDS011;41437;45.478;9.116;2023-10-19T10:42:07;17.05;;;12.75;;
55575;SDS011;41437;45.478;9.116;2023-10-19T10:45:18;16.98;;;12.18;;
55575;SDS011;41437;45.478;9.116;2023-10-19T10:48:22;17.25;;;11.90;;
55575;SDS011;41437;45.478;9.116;2023-10-19T10:51:26;16.67;;;11.98;;
55575;SDS011;41437;45.478;9.116;2023-10-19T10:54:30;14.60;;;10.60;;
55575;SDS011;41437;45.478;9.116;2023-10-19T10:57:32;14.95;;;10.82;;
55575;SDS011;41437;45.478;9.116;2023-10-19T11:00:34;13.52;;;10.27;;
55575;SDS011;41437;45.478;9.116;2023-10-19T11:03:43;15.52;;;10.75;;
55575;SDS011;41437;45.478;9.116;2023-10-19T11:06:51;13.65;;;10.38;;
55575;SDS011;41437;45.478;9.116;2023-10-19T11:09:56;12.25;;;9.43;;
55575;SDS011;41437;45.478;9.116;2023-10-19T11:12:59;12.32;;;9.05;;
55575;SDS011;41437;45.478;9.116;2023-10-19T11:16:03;10.98;;;8.73;;
55575;SDS011;41437;45.478;9.116;2023-10-19T11:19:06;11.57;;;8.77;;
55575;SDS011;41437;45.478;9.116;2023-10-19T11:22:17;12.18;;;9.07;;
55575;SDS011;41437;45.478;9.116;2023-10-19T11:25:22;12.73;;;9.50;;
55575;SDS011;41437;45.478;9.116;2023-10-19T11:28:28;12.80;;;9.05;;
55575;SDS011;41437;45.478;9.116;2023-10-19T11:34:39;14.90;;;11.43;;
55575;SDS011;41437;45.478;9.116;2023-10-19T11:37:50;15.55;;;11.80;;
55575;SDS011;41437;45.478;9.116;2023-10-19T11:40:52;15.15;;;12.63;;
55575;SDS011;41437;45.478;9.116;2023-10-19T11:43:54;18.05;;;13.25;;
55575;SDS011;41437;45.478;9.116;2023-10-19T11:46:56;15.10;;;12.07;;
55575;SDS011;41437;45.478;9.116;2023-10-19T11:49:58;19.13;;;14.68;;
55575;SDS011;41437;45.478;9.116;2023-10-19T11:53:01;18.58;;;13.77;;
55575;SDS011;41437;45.478;9.116;2023-10-19T11:56:04;17.40;;;13.57;;
55575;SDS011;41437;45.478;9.116;2023-10-19T11:59:09;18.35;;;13.63;;
55575;SDS011;41437;45.478;9.116;2023-10-19T12:02:12;18.60;;;14.03;;
55575;SDS011;41437;45.478;9.116;2023-10-19T12:05:18;16.48;;;13.07;;
55575;SDS011;41437;45.478;9.116;2023-10-19T12:08:25;15.55;;;12.60;;
55575;SDS011;41437;45.478;9.116;2023-10-19T12:11:28;15.95;;;11.43;;
55575;SDS011;41437;45.478;9.116;2023-10-19T12:14:31;17.45;;;12.07;;
55575;SDS011;41437;45.478;9.116;2023-10-19T12:17:34;17.70;;;12.80;;
55575;SDS011;41437;45.478;9.116;2023-10-19T12:20:36;18.70;;;14.70;;
55575;SDS011;41437;45.478;9.116;2023-10-19T12:23:42;19.00;;;14.27;;
55575;SDS011;41437;45.478;9.116;2023-10-19T12:26:45;20.83;;;14.85;;
55575;SDS011;41437;45.478;9.116;2023-10-19T12:29:47;22.58;;;16.63;;
55575;SDS011;41437;45.478;9.116;2023-10-19T12:32:50;19.52;;;14.32;;
55575;SDS011;41437;45.478;9.116;2023-10-19T12:35:51;19.83;;;15.25;;
55575;SDS011;41437;45.478;9.116;2023-10-19T12:38:58;21.58;;;14.90;;
55575;SDS011;41437;45.478;9.116;2023-10-19T12:42:05;18.65;;;14.10;;
55575;SDS011;41437;45.478;9.116;2023-10-19T12:45:08;15.13;;;11.70;;
55575;SDS011;41437;45.478;9.116;2023-10-19T12:48:11;15.32;;;12.18;;
55575;SDS011;41437;45.478;9.116;2023-10-19T12:51:13;16.08;;;12.38;;
55575;SDS011;41437;45.478;9.116;2023-10-19T12:54:17;14.90;;;11.48;;
55575;SDS011;41437;45.478;9.116;2023-10-19T13:00:20;14.30;;;10.40;;
55575;SDS011;41437;45.478;9.116;2023-10-19T13:03:26;12.73;;;10.00;;
55575;SDS011;41437;45.478;9.116;2023-10-19T13:06:31;12.98;;;9.02;;
55575;SDS011;41437;45.478;9.116;2023-10-19T13:09:36;12.43;;;9.35;;
55575;SDS011;41437;45.478;9.116;2023-10-19T13:12:39;13.02;;;9.45;;
55575;SDS011;41437;45.478;9.116;2023-10-19T13:15:42;14.82;;;10.10;;
55575;SDS011;41437;45.478;9.116;2023-10-19T13:18:45;13.38;;;9.90;;
55575;SDS011;41437;45.478;9.116;2023-10-19T13:21:50;11.73;;;9.00;;
55575;SDS011;41437;45.478;9.116;2023-10-19T13:24:53;11.90;;;9.13;;
55575;SDS011;41437;45.478;9.116;2023-10-19T13:27:56;12.82;;;9.15;;
55575;SDS011;41437;45.478;9.116;2023-10-19T13:30:58;13.88;;;10.02;;
55575;SDS011;41437;45.478;9.116;2023-10-19T13:34:00;12.73;;;9.90;;
55575;SDS011;41437;45.478;9.116;2023-10-19T13:37:03;13.20;;;10.05;;
55575;SDS011;41437;45.478;9.116;2023-10-19T13:40:10;14.85;;;10.27;;
55575;SDS011;41437;45.478;9.116;2023-10-19T13:43:13;13.82;;;10.30;;
55575;SDS011;41437;45.478;9.116;2023-10-19T13:46:24;13.98;;;10.85;;
55575;SDS011;41437;45.478;9.116;2023-10-19T13:49:27;14.57;;;10.88;;
55575;SDS011;41437;45.478;9.116;2023-10-19T13:52:30;15.02;;;11.30;;
55575;SDS011;41437;45.478;9.116;2023-10-19T13:55:37;14.45;;;10.38;;
55575;SDS011;41437;45.478;9.116;2023-10-19T13:58:42;14.07;;;10.27;;
55575;SDS011;41437;45.478;9.116;2023-10-19T14:01:58;13.93;;;10.20;;
55575;SDS011;41437;45.478;9.116;2023-10-19T14:05:01;13.82;;;11.07;;
55575;SDS011;41437;45.478;9.116;2023-10-19T14:08:05;15.43;;;11.63;;
55575;SDS011;41437;45.478;9.116;2023-10-19T14:11:13;15.85;;;11.63;;
55575;SDS011;41437;45.478;9.116;2023-10-19T14:14:16;24.42;;;16.35;;
55575;SDS011;41437;45.478;9.116;2023-10-19T14:17:20;23.07;;;15.97;;
55575;SDS011;41437;45.478;9.116;2023-10-19T14:20:29;31.00;;;20.73;;
55575;SDS011;41437;45.478;9.116;2023-10-19T14:23:34;31.98;;;21.17;;
55575;SDS011;41437;45.478;9.116;2023-10-19T14:26:40;30.15;;;21.02;;
55575;SDS011;41437;45.478;9.116;2023-10-19T14:29:47;29.70;;;21.40;;
55575;SDS011;41437;45.478;9.116;2023-10-19T14:32:50;30.20;;;21.52;;
55575;SDS011;41437;45.478;9.116;2023-10-19T14:39:05;30.02;;;21.17;;
55575;SDS011;41437;45.478;9.116;2023-10-19T14:42:10;29.60;;;21.48;;
55575;SDS011;41437;45.478;9.116;2023-10-19T14:45:14;26.10;;;19.23;;
55575;SDS011;41437;45.478;9.116;2023-10-19T14:48:18;26.27;;;18.98;;
55575;SDS011;41437;45.478;9.116;2023-10-19T14:51:21;28.10;;;20.07;;
55575;SDS011;41437;45.478;9.116;2023-10-19T14:54:23;26.27;;;19.45;;
55575;SDS011;41437;45.478;9.116;2023-10-19T14:57:30;26.42;;;19.40;;
55575;SDS011;41437;45.478;9.116;2023-10-19T15:00:32;29.33;;;20.30;;
55575;SDS011;41437;45.478;9.116;2023-10-19T15:03:34;24.17;;;18.70;;
55575;SDS011;41437;45.478;9.116;2023-10-19T15:06:36;29.40;;;20.05;;
55575;SDS011;41437;45.478;9.116;2023-10-19T15:09:38;25.40;;;19.17;;
55575;SDS011;41437;45.478;9.116;2023-10-19T15:12:42;24.08;;;18.35;;
55575;SDS011;41437;45.478;9.116;2023-10-19T15:15:48;25.50;;;19.35;;
55575;SDS011;41437;45.478;9.116;2023-10-19T15:18:51;27.63;;;19.95;;
55575;SDS011;41437;45.478;9.116;2023-10-19T15:21:53;30.23;;;20.77;;
55575;SDS011;41437;45.478;9.116;2023-10-19T15:24:55;26.23;;;20.67;;
55575;SDS011;41437;45.478;9.116;2023-10-19T15:27:59;28.75;;;21.00;;
55575;SDS011;41437;45.478;9.116;2023-10-19T15:31:00;30.50;;;21.35;;
55575;SDS011;41437;45.478;9.116;2023-10-19T15:34:23;27.70;;;20.05;;
55575;SDS011;41437;45.478;9.116;2023-10-19T15:37:25;26.38;;;19.50;;
55575;SDS011;41437;45.478;9.116;2023-10-19T15:40:27;27.27;;;19.63;;
55575;SDS011;41437;45.478;9.116;2023-10-19T15:43:31;28.85;;;20.77;;
55575;SDS011;41437;45.478;9.116;2023-10-19T15:46:33;25.50;;;18.77;;
55575;SDS011;41437;45.478;9.116;2023-10-19T15:49:45;27.33;;;19.85;;
55575;SDS011;41437;45.478;9.116;2023-10-19T15:52:48;25.55;;;19.17;;
55575;SDS011;41437;45.478;9.116;2023-10-19T15:55:51;22.23;;;17.58;;
55575;SDS011;41437;45.478;9.116;2023-10-19T16:02:36;27.27;;;19.65;;
55575;SDS011;41437;45.478;9.116;2023-10-19T16:05:40;24.35;;;18.77;;
55575;SDS011;41437;45.478;9.116;2023-10-19T16:08:59;28.52;;;19.83;;
55575;SDS011;41437;45.478;9.116;2023-10-19T16:12:04;26.00;;;18.80;;
55575;SDS011;41437;45.478;9.116;2023-10-19T16:15:08;23.55;;;18.13;;
55575;SDS011;41437;45.478;9.116;2023-10-19T16:18:14;24.85;;;18.98;;
55575;SDS011;41437;45.478;9.116;2023-10-19T16:21:30;23.38;;;18.08;;
55575;SDS011;41437;45.478;9.116;2023-10-19T16:24:34;22.33;;;17.65;;
55575;SDS011;41437;45.478;9.116;2023-10-19T16:27:36;23.83;;;17.98;;
55575;SDS011;41437;45.478;9.116;2023-10-19T16:30:42;24.85;;;16.98;;
55575;SDS011;41437;45.478;9.116;2023-10-19T16:37:16;22.73;;;17.58;;
55575;SDS011;41437;45.478;9.116;2023-10-19T16:40:18;23.52;;;16.83;;
55575;SDS011;41437;45.478;9.116;2023-10-19T16:43:20;22.73;;;17.67;;
55575;SDS011;41437;45.478;9.116;2023-10-19T16:46:22;22.25;;;16.80;;
55575;SDS011;41437;45.478;9.116;2023-10-19T16:49:29;20.10;;;15.95;;
55575;SDS011;41437;45.478;9.116;2023-10-19T16:52:36;22.08;;;15.90;;
55575;SDS011;41437;45.478;9.116;2023-10-19T16:56:03;19.77;;;14.77;;
55575;SDS011;41437;45.478;9.116;2023-10-19T16:59:07;20.40;;;15.65;;
55575;SDS011;41437;45.478;9.116;2023-10-19T17:05:23;18.10;;;14.60;;
55575;SDS011;41437;45.478;9.116;2023-10-19T17:08:27;19.20;;;15.52;;
55575;SDS011;41437;45.478;9.116;2023-10-19T17:11:29;19.10;;;14.95;;
55575;SDS011;41437;45.478;9.116;2023-10-19T17:14:32;20.05;;;15.65;;
55575;SDS011;41437;45.478;9.116;2023-10-19T17:17:33;20.48;;;15.98;;
55575;SDS011;41437;45.478;9.116;2023-10-19T17:20:35;20.42;;;15.80;;
55575;SDS011;41437;45.478;9.116;2023-10-19T17:23:38;29.13;;;20.05;;
55575;SDS011;41437;45.478;9.116;2023-10-19T17:26:40;22.77;;;17.45;;
55575;SDS011;41437;45.478;9.116;2023-10-19T17:29:41;29.45;;;26.23;;
55575;SDS011;41437;45.478;9.116;2023-10-19T17:32:43;22.85;;;18.65;;
55575;SDS011;41437;45.478;9.116;2023-10-19T17:35:46;22.55;;;17.67;;
55575;SDS011;41437;45.478;9.116;2023-10-19T17:38:50;23.67;;;17.38;;
55575;SDS011;41437;45.478;9.116;2023-10-19T17:41:52;20.27;;;16.85;;
55575;SDS011;41437;45.478;9.116;2023-10-19T17:44:54;23.90;;;19.50;;
55575;SDS011;41437;45.478;9.116;2023-10-19T17:47:55;23.70;;;18.50;;
55575;SDS011;41437;45.478;9.116;2023-10-19T17:50:57;21.02;;;16.48;;
55575;SDS011;41437;45.478;9.116;2023-10-19T17:54:00;23.23;;;18.02;;
55575;SDS011;41437;45.478;9.116;2023-10-19T17:57:05;22.13;;;16.30;;
55575;SDS011;41437;45.478;9.116;2023-10-19T18:00:17;22.08;;;16.88;;
55575;SDS011;41437;45.478;9.116;2023-10-19T18:03:19;20.63;;;16.00;;
55575;SDS011;41437;45.478;9.116;2023-10-19T18:06:24;21.30;;;16.75;;
55575;SDS011;41437;45.478;9.116;2023-10-19T18:09:27;23.08;;;18.58;;
55575;SDS011;41437;45.478;9.116;2023-10-19T18:12:29;21.70;;;16.67;;
55575;SDS011;41437;45.478;9.116;2023-10-19T18:15:31;23.30;;;17.55;;
55575;SDS011;41437;45.478;9.116;2023-10-19T18:18:32;23.23;;;18.08;;
55575;SDS011;41437;45.478;9.116;2023-10-19T18:21:34;24.23;;;19.40;;
55575;SDS011;41437;45.478;9.116;2023-10-19T18:24:40;23.10;;;18.27;;
55575;SDS011;41437;45.478;9.116;2023-10-19T18:27:42;21.45;;;16.85;;
55575;SDS011;41437;45.478;9.116;2023-10-19T18:30:43;25.17;;;19.13;;
55575;SDS011;41437;45.478;9.116;2023-10-19T18:33:55;22.42;;;17.00;;
55575;SDS011;41437;45.478;9.116;2023-10-19T18:36:57;19.48;;;15.25;;
55575;SDS011;41437;45.478;9.116;2023-10-19T18:40:00;20.67;;;15.32;;
55575;SDS011;41437;45.478;9.116;2023-10-19T18:43:02;19.67;;;16.00;;
55575;SDS011;41437;45.478;9.116;2023-10-19T18:46:04;23.23;;;17.05;;
55575;SDS011;41437;45.478;9.116;2023-10-19T18:49:06;22.67;;;16.95;;
55575;SDS011;41437;45.478;9.116;2023-10-19T18:52:08;21.73;;;16.25;;
55575;SDS011;41437;45.478;9.116;2023-10-19T18:55:12;22.95;;;16.63;;
55575;SDS011;41437;45.478;9.116;2023-10-19T18:58:22;20.45;;;16.48;;
55575;SDS011;41437;45.478;9.116;2023-10-19T19:01:27;27.88;;;23.92;;
55575;SDS011;41437;45.478;9.116;2023-10-19T19:04:31;24.35;;;18.00;;
55575;SDS011;41437;45.478;9.116;2023-10-19T19:07:39;21.23;;;16.65;;
55575;SDS011;41437;45.478;9.116;2023-10-19T19:10:42;19.60;;;15.80;;
55575;SDS011;41437;45.478;9.116;2023-10-19T19:13:45;22.08;;;17.98;;
55575;SDS011;41437;45.478;9.116;2023-10-19T19:16:48;21.77;;;16.42;;
55575;SDS011;41437;45.478;9.116;2023-10-19T19:19:50;22.42;;;17.27;;
55575;SDS011;41437;45.478;9.116;2023-10-19T19:22:51;25.45;;;18.80;;
55575;SDS011;41437;45.478;9.116;2023-10-19T19:25:55;23.05;;;19.85;;
55575;SDS011;41437;45.478;9.116;2023-10-19T19:28:57;22.85;;;19.77;;
55575;SDS011;41437;45.478;9.116;2023-10-19T19:31:59;22.05;;;17.70;;
55575;SDS011;41437;45.478;9.116;2023-10-19T19:35:01;25.33;;;18.88;;
55575;SDS011;41437;45.478;9.116;2023-10-19T19:38:03;23.20;;;18.38;;
55575;SDS011;41437;45.478;9.116;2023-10-19T19:41:07;20.70;;;16.92;;
55575;SDS011;41437;45.478;9.116;2023-10-19T19:47:36;27.75;;;20.00;;
55575;SDS011;41437;45.478;9.116;2023-10-19T19:50:41;23.70;;;18.05;;
